Terminal Aerodrome Forecast
Issued by NWS Bismarck, ND

Home | Current Version | Previous Version | Text Only | Print | Product List | Glossary Off
Versions: 1 2 3 4 5 6 7 8 9 10 11 12 13 14 15 16 17 18 19 20 21

000
FTUS43 KBIS 222228 AAA
TAFBIS
TAF AMD
KBIS 222228Z 2222/2318 03004KT 1 1/2SM BR OVC003
     FM230100 00000KT 3/4SM BR OVC002
     FM230300 00000KT 1/4SM FZFG OVC002
     FM231500 29005KT 3SM BR SCT003
     FM231700 30006KT P6SM SCT250=

USA.gov is the U.S. government's official web portal to all federal, state and local government web resources and services.